sensor_id;sensor_type;location;lat;lon;timestamp;P1;durP1;ratioP1;P2;durP2;ratioP2
14768;SDS011;7476;49.404;11.152;2023-03-30T00:02:19;4.77;;;2.10;;
14768;SDS011;7476;49.404;11.152;2023-03-30T00:04:47;5.93;;;2.30;;
14768;SDS011;7476;49.404;11.152;2023-03-30T00:07:14;5.13;;;2.20;;
14768;SDS011;7476;49.404;11.152;2023-03-30T00:09:42;5.20;;;2.30;;
14768;SDS011;7476;49.404;11.152;2023-03-30T00:12:10;3.40;;;2.00;;
14768;SDS011;7476;49.404;11.152;2023-03-30T00:14:37;4.67;;;2.27;;
14768;SDS011;7476;49.404;11.152;2023-03-30T00:17:06;3.90;;;2.30;;
14768;SDS011;7476;49.404;11.152;2023-03-30T00:19:33;5.63;;;2.43;;
14768;SDS011;7476;49.404;11.152;2023-03-30T00:22:01;3.47;;;2.30;;
14768;SDS011;7476;49.404;11.152;2023-03-30T00:24:28;2.80;;;2.00;;
14768;SDS011;7476;49.404;11.152;2023-03-30T00:26:56;3.13;;;2.07;;
14768;SDS011;7476;49.404;11.152;2023-03-30T00:29:23;5.40;;;2.10;;
14768;SDS011;7476;49.404;11.152;2023-03-30T00:31:49;4.70;;;2.20;;
14768;SDS011;7476;49.404;11.152;2023-03-30T00:34:16;2.57;;;2.00;;
14768;SDS011;7476;49.404;11.152;2023-03-30T00:36:43;4.90;;;2.37;;
14768;SDS011;7476;49.404;11.152;2023-03-30T00:39:11;3.10;;;2.03;;
14768;SDS011;7476;49.404;11.152;2023-03-30T00:41:38;7.10;;;2.60;;
14768;SDS011;7476;49.404;11.152;2023-03-30T00:44:07;4.33;;;2.20;;
14768;SDS011;7476;49.404;11.152;2023-03-30T00:46:49;4.07;;;2.00;;
14768;SDS011;7476;49.404;11.152;2023-03-30T00:49:16;3.30;;;2.30;;
14768;SDS011;7476;49.404;11.152;2023-03-30T00:51:43;4.60;;;2.10;;
14768;SDS011;7476;49.404;11.152;2023-03-30T00:54:11;6.50;;;2.57;;
14768;SDS011;7476;49.404;11.152;2023-03-30T00:56:41;4.77;;;2.27;;
14768;SDS011;7476;49.404;11.152;2023-03-30T00:59:09;6.63;;;2.30;;
14768;SDS011;7476;49.404;11.152;2023-03-30T01:01:36;6.23;;;2.10;;
14768;SDS011;7476;49.404;11.152;2023-03-30T01:04:05;4.13;;;2.00;;
14768;SDS011;7476;49.404;11.152;2023-03-30T01:06:34;5.60;;;2.00;;
14768;SDS011;7476;49.404;11.152;2023-03-30T01:09:04;3.73;;;2.07;;
14768;SDS011;7476;49.404;11.152;2023-03-30T01:11:32;5.83;;;2.43;;
14768;SDS011;7476;49.404;11.152;2023-03-30T01:13:59;5.80;;;2.00;;
14768;SDS011;7476;49.404;11.152;2023-03-30T01:16:31;3.33;;;2.30;;
14768;SDS011;7476;49.404;11.152;2023-03-30T01:19:09;5.30;;;2.20;;
14768;SDS011;7476;49.404;11.152;2023-03-30T01:22:01;5.03;;;2.17;;
14768;SDS011;7476;49.404;11.152;2023-03-30T01:30:53;3.43;;;2.17;;
14768;SDS011;7476;49.404;11.152;2023-03-30T01:33:53;7.43;;;2.57;;
14768;SDS011;7476;49.404;11.152;2023-03-30T01:36:38;6.17;;;2.20;;
14768;SDS011;7476;49.404;11.152;2023-03-30T01:39:32;4.10;;;2.20;;
14768;SDS011;7476;49.404;11.152;2023-03-30T01:42:07;4.53;;;2.43;;
14768;SDS011;7476;49.404;11.152;2023-03-30T01:44:44;5.93;;;2.70;;
14768;SDS011;7476;49.404;11.152;2023-03-30T01:47:18;4.87;;;2.37;;
14768;SDS011;7476;49.404;11.152;2023-03-30T01:49:50;5.00;;;2.40;;
14768;SDS011;7476;49.404;11.152;2023-03-30T01:52:23;4.57;;;2.37;;
14768;SDS011;7476;49.404;11.152;2023-03-30T01:54:56;5.83;;;2.67;;
14768;SDS011;7476;49.404;11.152;2023-03-30T01:57:29;6.30;;;2.80;;
14768;SDS011;7476;49.404;11.152;2023-03-30T02:00:00;5.00;;;2.40;;
14768;SDS011;7476;49.404;11.152;2023-03-30T02:02:37;6.00;;;2.57;;
14768;SDS011;7476;49.404;11.152;2023-03-30T02:05:06;5.17;;;2.70;;
14768;SDS011;7476;49.404;11.152;2023-03-30T02:07:34;5.30;;;2.47;;
14768;SDS011;7476;49.404;11.152;2023-03-30T02:10:06;7.07;;;2.67;;
14768;SDS011;7476;49.404;11.152;2023-03-30T02:12:36;6.53;;;2.70;;
14768;SDS011;7476;49.404;11.152;2023-03-30T02:15:06;7.83;;;2.40;;
14768;SDS011;7476;49.404;11.152;2023-03-30T02:17:36;5.33;;;2.50;;
14768;SDS011;7476;49.404;11.152;2023-03-30T02:20:04;7.17;;;2.80;;
14768;SDS011;7476;49.404;11.152;2023-03-30T02:22:34;5.37;;;2.40;;
14768;SDS011;7476;49.404;11.152;2023-03-30T02:25:01;6.73;;;2.87;;
14768;SDS011;7476;49.404;11.152;2023-03-30T02:27:30;7.63;;;2.73;;
14768;SDS011;7476;49.404;11.152;2023-03-30T02:29:59;4.90;;;2.30;;
14768;SDS011;7476;49.404;11.152;2023-03-30T02:32:26;8.17;;;2.30;;
14768;SDS011;7476;49.404;11.152;2023-03-30T02:38:07;6.60;;;2.40;;
14768;SDS011;7476;49.404;11.152;2023-03-30T02:40:51;3.53;;;2.23;;
14768;SDS011;7476;49.404;11.152;2023-03-30T02:43:28;5.20;;;2.50;;
14768;SDS011;7476;49.404;11.152;2023-03-30T02:46:03;4.80;;;2.30;;
14768;SDS011;7476;49.404;11.152;2023-03-30T02:48:40;6.83;;;2.73;;
14768;SDS011;7476;49.404;11.152;2023-03-30T02:51:20;5.63;;;3.40;;
14768;SDS011;7476;49.404;11.152;2023-03-30T02:54:03;5.63;;;2.60;;
14768;SDS011;7476;49.404;11.152;2023-03-30T02:56:39;9.10;;;2.57;;
14768;SDS011;7476;49.404;11.152;2023-03-30T02:59:15;7.53;;;2.70;;
14768;SDS011;7476;49.404;11.152;2023-03-30T03:01:45;5.90;;;3.00;;
14768;SDS011;7476;49.404;11.152;2023-03-30T03:04:16;4.37;;;2.40;;
14768;SDS011;7476;49.404;11.152;2023-03-30T03:06:46;4.23;;;2.37;;
14768;SDS011;7476;49.404;11.152;2023-03-30T03:09:16;5.17;;;2.80;;
14768;SDS011;7476;49.404;11.152;2023-03-30T03:11:44;6.70;;;2.90;;
14768;SDS011;7476;49.404;11.152;2023-03-30T03:14:11;3.17;;;2.27;;
14768;SDS011;7476;49.404;11.152;2023-03-30T03:16:39;6.60;;;2.83;;
14768;SDS011;7476;49.404;11.152;2023-03-30T03:19:06;4.03;;;2.43;;
14768;SDS011;7476;49.404;11.152;2023-03-30T03:21:33;5.23;;;2.60;;
14768;SDS011;7476;49.404;11.152;2023-03-30T03:24:00;7.23;;;2.63;;
14768;SDS011;7476;49.404;11.152;2023-03-30T03:26:27;5.90;;;3.33;;
14768;SDS011;7476;49.404;11.152;2023-03-30T03:28:54;6.10;;;2.60;;
14768;SDS011;7476;49.404;11.152;2023-03-30T03:31:20;8.03;;;3.00;;
14768;SDS011;7476;49.404;11.152;2023-03-30T03:33:49;6.03;;;2.77;;
14768;SDS011;7476;49.404;11.152;2023-03-30T03:36:16;4.93;;;2.87;;
14768;SDS011;7476;49.404;11.152;2023-03-30T03:38:43;7.30;;;3.40;;
14768;SDS011;7476;49.404;11.152;2023-03-30T03:41:10;6.33;;;2.57;;
14768;SDS011;7476;49.404;11.152;2023-03-30T03:43:38;6.60;;;3.20;;
14768;SDS011;7476;49.404;11.152;2023-03-30T03:46:05;9.70;;;2.83;;
14768;SDS011;7476;49.404;11.152;2023-03-30T03:48:31;9.43;;;3.00;;
14768;SDS011;7476;49.404;11.152;2023-03-30T03:50:59;5.80;;;3.00;;
14768;SDS011;7476;49.404;11.152;2023-03-30T03:53:26;7.83;;;3.03;;
14768;SDS011;7476;49.404;11.152;2023-03-30T03:55:53;4.87;;;2.83;;
14768;SDS011;7476;49.404;11.152;2023-03-30T03:58:20;4.73;;;2.30;;
14768;SDS011;7476;49.404;11.152;2023-03-30T04:00:47;5.57;;;2.80;;
14768;SDS011;7476;49.404;11.152;2023-03-30T04:03:14;8.17;;;3.17;;
14768;SDS011;7476;49.404;11.152;2023-03-30T04:05:41;8.80;;;3.57;;
14768;SDS011;7476;49.404;11.152;2023-03-30T04:08:09;10.73;;;3.10;;
14768;SDS011;7476;49.404;11.152;2023-03-30T04:10:36;7.87;;;3.30;;
14768;SDS011;7476;49.404;11.152;2023-03-30T04:13:03;6.40;;;2.87;;
14768;SDS011;7476;49.404;11.152;2023-03-30T04:15:30;8.13;;;3.30;;
14768;SDS011;7476;49.404;11.152;2023-03-30T04:17:57;6.63;;;2.70;;
14768;SDS011;7476;49.404;11.152;2023-03-30T04:20:24;8.17;;;3.03;;
14768;SDS011;7476;49.404;11.152;2023-03-30T04:22:51;7.17;;;2.97;;
14768;SDS011;7476;49.404;11.152;2023-03-30T04:25:20;12.60;;;3.50;;
14768;SDS011;7476;49.404;11.152;2023-03-30T04:27:49;11.73;;;3.57;;
14768;SDS011;7476;49.404;11.152;2023-03-30T04:30:16;12.23;;;3.13;;
14768;SDS011;7476;49.404;11.152;2023-03-30T04:32:44;11.40;;;3.33;;
14768;SDS011;7476;49.404;11.152;2023-03-30T04:35:18;11.60;;;3.53;;
14768;SDS011;7476;49.404;11.152;2023-03-30T04:37:45;8.83;;;3.33;;
14768;SDS011;7476;49.404;11.152;2023-03-30T04:40:16;8.83;;;3.00;;
14768;SDS011;7476;49.404;11.152;2023-03-30T04:42:46;6.77;;;3.33;;
14768;SDS011;7476;49.404;11.152;2023-03-30T04:45:14;10.43;;;3.53;;
14768;SDS011;7476;49.404;11.152;2023-03-30T04:47:42;11.97;;;3.00;;
14768;SDS011;7476;49.404;11.152;2023-03-30T04:50:09;11.40;;;3.43;;
14768;SDS011;7476;49.404;11.152;2023-03-30T04:52:35;11.73;;;3.60;;
14768;SDS011;7476;49.404;11.152;2023-03-30T04:55:02;11.37;;;3.40;;
14768;SDS011;7476;49.404;11.152;2023-03-30T04:57:29;12.40;;;3.30;;
14768;SDS011;7476;49.404;11.152;2023-03-30T04:59:57;13.10;;;3.97;;
14768;SDS011;7476;49.404;11.152;2023-03-30T05:02:24;10.63;;;3.57;;
14768;SDS011;7476;49.404;11.152;2023-03-30T05:04:51;9.03;;;3.50;;
14768;SDS011;7476;49.404;11.152;2023-03-30T05:07:18;11.80;;;3.93;;
14768;SDS011;7476;49.404;11.152;2023-03-30T05:09:45;11.73;;;4.23;;
14768;SDS011;7476;49.404;11.152;2023-03-30T05:12:13;9.03;;;3.43;;
14768;SDS011;7476;49.404;11.152;2023-03-30T05:14:40;14.20;;;4.20;;
14768;SDS011;7476;49.404;11.152;2023-03-30T05:17:08;9.03;;;3.53;;
14768;SDS011;7476;49.404;11.152;2023-03-30T05:19:35;9.70;;;3.20;;
14768;SDS011;7476;49.404;11.152;2023-03-30T05:22:02;12.27;;;4.07;;
14768;SDS011;7476;49.404;11.152;2023-03-30T05:24:29;11.47;;;3.60;;
14768;SDS011;7476;49.404;11.152;2023-03-30T05:26:55;13.23;;;4.13;;
14768;SDS011;7476;49.404;11.152;2023-03-30T05:29:22;18.93;;;4.43;;
14768;SDS011;7476;49.404;11.152;2023-03-30T05:31:49;12.03;;;4.00;;
14768;SDS011;7476;49.404;11.152;2023-03-30T05:34:17;15.13;;;3.97;;
14768;SDS011;7476;49.404;11.152;2023-03-30T05:36:44;13.03;;;4.00;;
14768;SDS011;7476;49.404;11.152;2023-03-30T05:39:11;7.63;;;3.57;;
14768;SDS011;7476;49.404;11.152;2023-03-30T05:41:39;10.53;;;3.43;;
14768;SDS011;7476;49.404;11.152;2023-03-30T05:44:06;15.27;;;3.63;;
14768;SDS011;7476;49.404;11.152;2023-03-30T05:46:32;15.47;;;4.17;;
14768;SDS011;7476;49.404;11.152;2023-03-30T05:48:59;14.37;;;4.07;;
14768;SDS011;7476;49.404;11.152;2023-03-30T05:51:30;11.83;;;3.90;;
14768;SDS011;7476;49.404;11.152;2023-03-30T05:53:56;18.13;;;4.20;;
14768;SDS011;7476;49.404;11.152;2023-03-30T05:56:23;16.80;;;4.27;;
14768;SDS011;7476;49.404;11.152;2023-03-30T05:58:51;12.53;;;4.07;;
14768;SDS011;7476;49.404;11.152;2023-03-30T06:01:17;12.43;;;3.70;;
14768;SDS011;7476;49.404;11.152;2023-03-30T06:03:45;15.77;;;3.47;;
14768;SDS011;7476;49.404;11.152;2023-03-30T06:06:12;12.67;;;4.03;;
14768;SDS011;7476;49.404;11.152;2023-03-30T06:08:40;10.60;;;3.93;;
14768;SDS011;7476;49.404;11.152;2023-03-30T06:11:07;10.00;;;4.00;;
14768;SDS011;7476;49.404;11.152;2023-03-30T06:13:33;13.90;;;4.03;;
14768;SDS011;7476;49.404;11.152;2023-03-30T06:16:00;12.97;;;4.57;;
14768;SDS011;7476;49.404;11.152;2023-03-30T06:18:27;17.20;;;4.17;;
14768;SDS011;7476;49.404;11.152;2023-03-30T06:20:53;15.30;;;4.60;;
14768;SDS011;7476;49.404;11.152;2023-03-30T06:23:21;13.13;;;5.00;;
14768;SDS011;7476;49.404;11.152;2023-03-30T06:25:49;11.27;;;3.80;;
14768;SDS011;7476;49.404;11.152;2023-03-30T06:28:17;14.00;;;4.10;;
14768;SDS011;7476;49.404;11.152;2023-03-30T06:30:44;19.30;;;3.90;;
14768;SDS011;7476;49.404;11.152;2023-03-30T06:33:13;11.70;;;3.77;;
14768;SDS011;7476;49.404;11.152;2023-03-30T06:35:42;14.33;;;4.53;;
14768;SDS011;7476;49.404;11.152;2023-03-30T06:38:10;13.13;;;4.10;;
14768;SDS011;7476;49.404;11.152;2023-03-30T06:40:37;10.30;;;4.13;;
14768;SDS011;7476;49.404;11.152;2023-03-30T06:43:05;12.00;;;3.50;;
14768;SDS011;7476;49.404;11.152;2023-03-30T06:45:32;13.90;;;3.73;;
14768;SDS011;7476;49.404;11.152;2023-03-30T06:47:58;13.87;;;4.00;;
14768;SDS011;7476;49.404;11.152;2023-03-30T06:50:25;13.00;;;4.50;;
14768;SDS011;7476;49.404;11.152;2023-03-30T06:52:52;15.57;;;4.20;;
14768;SDS011;7476;49.404;11.152;2023-03-30T06:55:18;10.03;;;4.00;;
14768;SDS011;7476;49.404;11.152;2023-03-30T06:57:45;12.73;;;4.40;;
14768;SDS011;7476;49.404;11.152;2023-03-30T07:00:14;9.43;;;3.60;;
14768;SDS011;7476;49.404;11.152;2023-03-30T07:02:41;13.60;;;4.50;;
14768;SDS011;7476;49.404;11.152;2023-03-30T07:05:08;11.97;;;4.07;;
14768;SDS011;7476;49.404;11.152;2023-03-30T07:07:37;14.30;;;4.80;;
14768;SDS011;7476;49.404;11.152;2023-03-30T07:10:05;15.60;;;5.47;;
14768;SDS011;7476;49.404;11.152;2023-03-30T07:12:34;11.60;;;4.10;;
14768;SDS011;7476;49.404;11.152;2023-03-30T07:15:01;11.27;;;4.17;;
14768;SDS011;7476;49.404;11.152;2023-03-30T07:17:29;15.43;;;4.77;;
14768;SDS011;7476;49.404;11.152;2023-03-30T07:19:56;13.23;;;4.10;;
14768;SDS011;7476;49.404;11.152;2023-03-30T07:22:23;11.07;;;4.20;;
14768;SDS011;7476;49.404;11.152;2023-03-30T07:24:50;13.33;;;4.30;;
14768;SDS011;7476;49.404;11.152;2023-03-30T07:27:16;10.80;;;4.40;;
14768;SDS011;7476;49.404;11.152;2023-03-30T07:29:43;10.73;;;4.10;;
14768;SDS011;7476;49.404;11.152;2023-03-30T07:32:10;14.73;;;4.20;;
14768;SDS011;7476;49.404;11.152;2023-03-30T07:34:38;13.30;;;5.03;;
14768;SDS011;7476;49.404;11.152;2023-03-30T07:37:04;12.67;;;4.40;;
14768;SDS011;7476;49.404;11.152;2023-03-30T07:39:32;12.53;;;4.27;;
14768;SDS011;7476;49.404;11.152;2023-03-30T07:41:59;8.73;;;4.00;;
14768;SDS011;7476;49.404;11.152;2023-03-30T07:44:25;15.03;;;4.90;;
14768;SDS011;7476;49.404;11.152;2023-03-30T07:46:53;17.10;;;4.67;;
14768;SDS011;7476;49.404;11.152;2023-03-30T07:49:20;12.03;;;4.30;;
14768;SDS011;7476;49.404;11.152;2023-03-30T07:51:48;12.97;;;4.57;;
14768;SDS011;7476;49.404;11.152;2023-03-30T07:54:15;18.13;;;4.87;;
14768;SDS011;7476;49.404;11.152;2023-03-30T07:56:42;13.33;;;4.87;;
14768;SDS011;7476;49.404;11.152;2023-03-30T07:59:09;10.20;;;4.70;;
14768;SDS011;7476;49.404;11.152;2023-03-30T08:01:37;12.97;;;4.40;;
14768;SDS011;7476;49.404;11.152;2023-03-30T08:04:04;10.33;;;4.10;;
14768;SDS011;7476;49.404;11.152;2023-03-30T08:06:31;11.27;;;3.73;;
14768;SDS011;7476;49.404;11.152;2023-03-30T08:08:59;9.23;;;4.37;;
14768;SDS011;7476;49.404;11.152;2023-03-30T08:11:26;15.27;;;4.07;;
14768;SDS011;7476;49.404;11.152;2023-03-30T08:13:53;16.27;;;5.10;;
14768;SDS011;7476;49.404;11.152;2023-03-30T08:16:19;10.77;;;4.13;;
14768;SDS011;7476;49.404;11.152;2023-03-30T08:18:46;13.17;;;3.73;;
14768;SDS011;7476;49.404;11.152;2023-03-30T08:21:13;13.13;;;4.70;;
14768;SDS011;7476;49.404;11.152;2023-03-30T08:23:40;14.60;;;4.50;;
14768;SDS011;7476;49.404;11.152;2023-03-30T08:26:08;9.53;;;4.07;;
14768;SDS011;7476;49.404;11.152;2023-03-30T08:28:34;14.73;;;4.47;;
14768;SDS011;7476;49.404;11.152;2023-03-30T08:31:02;12.57;;;4.33;;
14768;SDS011;7476;49.404;11.152;2023-03-30T08:33:30;13.60;;;4.77;;
14768;SDS011;7476;49.404;11.152;2023-03-30T08:35:57;18.30;;;5.10;;
14768;SDS011;7476;49.404;11.152;2023-03-30T08:38:24;15.33;;;5.43;;
14768;SDS011;7476;49.404;11.152;2023-03-30T08:40:51;16.60;;;4.73;;
14768;SDS011;7476;49.404;11.152;2023-03-30T08:43:22;15.80;;;5.97;;
14768;SDS011;7476;49.404;11.152;2023-03-30T08:45:56;21.37;;;6.10;;
14768;SDS011;7476;49.404;11.152;2023-03-30T08:48:25;17.27;;;5.23;;
14768;SDS011;7476;49.404;11.152;2023-03-30T08:50:56;13.57;;;5.70;;
14768;SDS011;7476;49.404;11.152;2023-03-30T08:53:25;14.40;;;5.20;;
14768;SDS011;7476;49.404;11.152;2023-03-30T08:55:56;16.30;;;5.37;;
14768;SDS011;7476;49.404;11.152;2023-03-30T08:58:30;14.30;;;5.00;;
14768;SDS011;7476;49.404;11.152;2023-03-30T09:01:06;10.43;;;4.53;;
14768;SDS011;7476;49.404;11.152;2023-03-30T09:03:40;15.27;;;4.77;;
14768;SDS011;7476;49.404;11.152;2023-03-30T09:06:19;11.03;;;4.83;;
14768;SDS011;7476;49.404;11.152;2023-03-30T09:08:52;16.23;;;5.90;;
14768;SDS011;7476;49.404;11.152;2023-03-30T09:11:21;14.07;;;5.13;;
14768;SDS011;7476;49.404;11.152;2023-03-30T09:13:57;17.90;;;5.33;;
14768;SDS011;7476;49.404;11.152;2023-03-30T09:16:28;15.00;;;4.87;;
14768;SDS011;7476;49.404;11.152;2023-03-30T09:19:02;13.13;;;5.43;;
14768;SDS011;7476;49.404;11.152;2023-03-30T09:21:34;14.07;;;5.40;;
14768;SDS011;7476;49.404;11.152;2023-03-30T09:24:05;14.23;;;5.40;;
14768;SDS011;7476;49.404;11.152;2023-03-30T09:26:39;11.60;;;5.20;;
14768;SDS011;7476;49.404;11.152;2023-03-30T09:29:14;13.47;;;4.90;;
14768;SDS011;7476;49.404;11.152;2023-03-30T09:31:46;10.60;;;4.80;;
14768;SDS011;7476;49.404;11.152;2023-03-30T09:34:19;12.63;;;4.67;;
14768;SDS011;7476;49.404;11.152;2023-03-30T09:36:54;10.40;;;4.50;;
14768;SDS011;7476;49.404;11.152;2023-03-30T09:39:23;11.87;;;4.70;;
14768;SDS011;7476;49.404;11.152;2023-03-30T09:41:58;11.30;;;4.47;;
14768;SDS011;7476;49.404;11.152;2023-03-30T09:44:40;12.03;;;4.23;;
14768;SDS011;7476;49.404;11.152;2023-03-30T09:47:15;12.23;;;4.77;;
14768;SDS011;7476;49.404;11.152;2023-03-30T09:49:47;11.57;;;4.73;;
14768;SDS011;7476;49.404;11.152;2023-03-30T09:52:17;14.83;;;4.90;;
14768;SDS011;7476;49.404;11.152;2023-03-30T09:54:46;12.43;;;5.27;;
14768;SDS011;7476;49.404;11.152;2023-03-30T09:57:21;13.97;;;5.10;;
14768;SDS011;7476;49.404;11.152;2023-03-30T09:59:51;12.23;;;5.20;;
14768;SDS011;7476;49.404;11.152;2023-03-30T10:02:20;9.33;;;4.57;;
14768;SDS011;7476;49.404;11.152;2023-03-30T10:04:57;14.80;;;5.80;;
14768;SDS011;7476;49.404;11.152;2023-03-30T10:07:26;11.73;;;4.93;;
14768;SDS011;7476;49.404;11.152;2023-03-30T10:09:56;16.63;;;5.73;;
14768;SDS011;7476;49.404;11.152;2023-03-30T10:12:25;12.37;;;4.67;;
14768;SDS011;7476;49.404;11.152;2023-03-30T10:14:55;13.73;;;5.10;;
14768;SDS011;7476;49.404;11.152;2023-03-30T10:17:23;15.63;;;4.97;;
14768;SDS011;7476;49.404;11.152;2023-03-30T10:19:51;13.57;;;4.67;;
14768;SDS011;7476;49.404;11.152;2023-03-30T10:22:19;12.80;;;5.10;;
14768;SDS011;7476;49.404;11.152;2023-03-30T10:24:48;11.53;;;5.03;;
14768;SDS011;7476;49.404;11.152;2023-03-30T10:27:17;10.07;;;4.23;;
14768;SDS011;7476;49.404;11.152;2023-03-30T10:29:44;10.90;;;4.90;;
14768;SDS011;7476;49.404;11.152;2023-03-30T10:32:15;11.40;;;4.80;;
14768;SDS011;7476;49.404;11.152;2023-03-30T10:34:44;16.63;;;4.83;;
14768;SDS011;7476;49.404;11.152;2023-03-30T10:37:13;13.37;;;5.07;;
14768;SDS011;7476;49.404;11.152;2023-03-30T10:39:44;11.67;;;4.37;;
14768;SDS011;7476;49.404;11.152;2023-03-30T10:42:13;12.40;;;4.43;;
14768;SDS011;7476;49.404;11.152;2023-03-30T10:44:44;11.30;;;4.50;;
14768;SDS011;7476;49.404;11.152;2023-03-30T10:50:14;11.50;;;4.47;;
14768;SDS011;7476;49.404;11.152;2023-03-30T10:52:53;10.27;;;4.43;;
14768;SDS011;7476;49.404;11.152;2023-03-30T10:55:28;16.93;;;4.83;;
14768;SDS011;7476;49.404;11.152;2023-03-30T10:58:03;13.83;;;4.10;;
14768;SDS011;7476;49.404;11.152;2023-03-30T11:00:42;16.77;;;6.17;;
14768;SDS011;7476;49.404;11.152;2023-03-30T11:03:16;22.60;;;14.40;;
14768;SDS011;7476;49.404;11.152;2023-03-30T11:05:50;14.30;;;6.47;;
14768;SDS011;7476;49.404;11.152;2023-03-30T11:08:19;15.10;;;7.57;;
14768;SDS011;7476;49.404;11.152;2023-03-30T11:10:51;10.47;;;4.87;;
14768;SDS011;7476;49.404;11.152;2023-03-30T11:13:20;10.63;;;5.43;;
14768;SDS011;7476;49.404;11.152;2023-03-30T11:15:50;8.57;;;3.87;;
14768;SDS011;7476;49.404;11.152;2023-03-30T11:18:20;13.30;;;6.50;;
14768;SDS011;7476;49.404;11.152;2023-03-30T11:20:51;10.57;;;4.23;;
14768;SDS011;7476;49.404;11.152;2023-03-30T11:23:25;9.07;;;4.20;;
14768;SDS011;7476;49.404;11.152;2023-03-30T11:25:59;8.83;;;4.47;;
14768;SDS011;7476;49.404;11.152;2023-03-30T11:28:35;11.17;;;4.37;;
14768;SDS011;7476;49.404;11.152;2023-03-30T11:31:13;12.80;;;4.47;;
14768;SDS011;7476;49.404;11.152;2023-03-30T11:33:54;7.70;;;3.73;;
14768;SDS011;7476;49.404;11.152;2023-03-30T11:36:26;9.77;;;4.60;;
14768;SDS011;7476;49.404;11.152;2023-03-30T11:38:57;8.60;;;3.90;;
14768;SDS011;7476;49.404;11.152;2023-03-30T11:41:31;8.33;;;4.00;;
14768;SDS011;7476;49.404;11.152;2023-03-30T11:44:01;9.93;;;4.20;;
14768;SDS011;7476;49.404;11.152;2023-03-30T11:46:29;8.13;;;3.80;;
14768;SDS011;7476;49.404;11.152;2023-03-30T11:49:09;9.43;;;4.33;;
14768;SDS011;7476;49.404;11.152;2023-03-30T11:51:48;8.30;;;4.07;;
14768;SDS011;7476;49.404;11.152;2023-03-30T11:54:43;6.50;;;3.40;;
14768;SDS011;7476;49.404;11.152;2023-03-30T11:57:24;7.40;;;3.70;;
14768;SDS011;7476;49.404;11.152;2023-03-30T12:00:00;8.10;;;3.77;;
14768;SDS011;7476;49.404;11.152;2023-03-30T12:02:43;7.63;;;3.73;;
14768;SDS011;7476;49.404;11.152;2023-03-30T12:05:17;6.37;;;3.37;;
14768;SDS011;7476;49.404;11.152;2023-03-30T12:07:52;7.53;;;3.50;;
14768;SDS011;7476;49.404;11.152;2023-03-30T12:10:27;5.50;;;3.13;;
14768;SDS011;7476;49.404;11.152;2023-03-30T12:12:59;6.27;;;3.13;;
14768;SDS011;7476;49.404;11.152;2023-03-30T12:15:33;8.53;;;3.80;;
14768;SDS011;7476;49.404;11.152;2023-03-30T12:18:10;5.27;;;3.23;;
14768;SDS011;7476;49.404;11.152;2023-03-30T12:20:45;6.57;;;3.47;;
14768;SDS011;7476;49.404;11.152;2023-03-30T12:23:25;5.73;;;3.00;;
14768;SDS011;7476;49.404;11.152;2023-03-30T12:26:04;6.17;;;2.90;;
14768;SDS011;7476;49.404;11.152;2023-03-30T12:28:39;5.70;;;2.90;;
14768;SDS011;7476;49.404;11.152;2023-03-30T12:31:12;5.73;;;3.00;;
14768;SDS011;7476;49.404;11.152;2023-03-30T12:33:43;3.53;;;2.53;;
14768;SDS011;7476;49.404;11.152;2023-03-30T12:36:23;5.90;;;2.60;;
14768;SDS011;7476;49.404;11.152;2023-03-30T12:38:58;4.07;;;2.43;;
14768;SDS011;7476;49.404;11.152;2023-03-30T12:41:28;3.73;;;2.57;;
14768;SDS011;7476;49.404;11.152;2023-03-30T12:44:13;6.57;;;3.03;;
14768;SDS011;7476;49.404;11.152;2023-03-30T12:46:55;6.10;;;2.80;;
14768;SDS011;7476;49.404;11.152;2023-03-30T12:49:32;4.73;;;2.67;;
14768;SDS011;7476;49.404;11.152;2023-03-30T12:52:12;5.80;;;2.70;;
14768;SDS011;7476;49.404;11.152;2023-03-30T12:55:00;4.00;;;2.57;;
14768;SDS011;7476;49.404;11.152;2023-03-30T12:57:41;3.47;;;2.33;;
14768;SDS011;7476;49.404;11.152;2023-03-30T13:03:32;4.23;;;2.60;;
14768;SDS011;7476;49.404;11.152;2023-03-30T13:06:03;4.37;;;2.50;;
14768;SDS011;7476;49.404;11.152;2023-03-30T13:08:35;3.00;;;2.17;;
14768;SDS011;7476;49.404;11.152;2023-03-30T13:11:04;4.80;;;2.50;;
14768;SDS011;7476;49.404;11.152;2023-03-30T13:13:48;5.07;;;2.33;;
14768;SDS011;7476;49.404;11.152;2023-03-30T13:19:40;3.03;;;2.07;;
14768;SDS011;7476;49.404;11.152;2023-03-30T13:22:27;4.43;;;2.70;;
14768;SDS011;7476;49.404;11.152;2023-03-30T13:24:58;4.20;;;2.40;;
14768;SDS011;7476;49.404;11.152;2023-03-30T13:27:27;3.93;;;2.73;;
14768;SDS011;7476;49.404;11.152;2023-03-30T13:29:57;6.37;;;2.40;;
14768;SDS011;7476;49.404;11.152;2023-03-30T13:32:37;3.83;;;2.40;;
14768;SDS011;7476;49.404;11.152;2023-03-30T13:35:28;3.80;;;2.53;;
14768;SDS011;7476;49.404;11.152;2023-03-30T13:41:02;5.67;;;2.93;;
14768;SDS011;7476;49.404;11.152;2023-03-30T13:43:50;6.83;;;2.83;;
14768;SDS011;7476;49.404;11.152;2023-03-30T13:46:28;6.13;;;2.50;;
14768;SDS011;7476;49.404;11.152;2023-03-30T13:49:10;5.47;;;2.47;;
14768;SDS011;7476;49.404;11.152;2023-03-30T13:51:42;3.33;;;2.37;;
14768;SDS011;7476;49.404;11.152;2023-03-30T13:54:10;4.33;;;2.50;;
14768;SDS011;7476;49.404;11.152;2023-03-30T13:56:45;6.40;;;3.10;;
14768;SDS011;7476;49.404;11.152;2023-03-30T13:59:15;4.70;;;2.50;;
14768;SDS011;7476;49.404;11.152;2023-03-30T14:01:44;4.73;;;2.73;;
14768;SDS011;7476;49.404;11.152;2023-03-30T14:04:13;7.43;;;3.03;;
14768;SDS011;7476;49.404;11.152;2023-03-30T14:06:40;4.33;;;2.40;;
14768;SDS011;7476;49.404;11.152;2023-03-30T14:09:10;6.17;;;2.70;;
14768;SDS011;7476;49.404;11.152;2023-03-30T14:11:40;3.73;;;2.70;;
14768;SDS011;7476;49.404;11.152;2023-03-30T14:14:13;7.30;;;2.93;;
14768;SDS011;7476;49.404;11.152;2023-03-30T14:16:43;3.93;;;2.60;;
14768;SDS011;7476;49.404;11.152;2023-03-30T14:19:10;4.83;;;2.60;;
14768;SDS011;7476;49.404;11.152;2023-03-30T14:21:43;5.30;;;2.50;;
14768;SDS011;7476;49.404;11.152;2023-03-30T14:24:11;5.80;;;2.70;;
14768;SDS011;7476;49.404;11.152;2023-03-30T14:26:40;6.60;;;2.70;;
14768;SDS011;7476;49.404;11.152;2023-03-30T14:29:12;6.53;;;2.50;;
14768;SDS011;7476;49.404;11.152;2023-03-30T14:31:43;3.50;;;2.37;;
14768;SDS011;7476;49.404;11.152;2023-03-30T14:34:23;5.00;;;2.70;;
14768;SDS011;7476;49.404;11.152;2023-03-30T14:36:51;2.73;;;2.50;;
14768;SDS011;7476;49.404;11.152;2023-03-30T14:39:19;4.00;;;2.27;;
14768;SDS011;7476;49.404;11.152;2023-03-30T14:41:47;4.07;;;2.17;;
14768;SDS011;7476;49.404;11.152;2023-03-30T14:44:16;5.00;;;3.30;;
14768;SDS011;7476;49.404;11.152;2023-03-30T14:46:45;8.03;;;2.90;;
14768;SDS011;7476;49.404;11.152;2023-03-30T14:49:16;5.97;;;2.50;;
14768;SDS011;7476;49.404;11.152;2023-03-30T14:51:45;4.17;;;2.30;;
14768;SDS011;7476;49.404;11.152;2023-03-30T14:54:14;6.00;;;2.43;;
14768;SDS011;7476;49.404;11.152;2023-03-30T14:56:43;5.00;;;2.40;;
14768;SDS011;7476;49.404;11.152;2023-03-30T14:59:11;6.83;;;2.87;;
14768;SDS011;7476;49.404;11.152;2023-03-30T15:01:41;4.70;;;2.50;;
14768;SDS011;7476;49.404;11.152;2023-03-30T15:04:09;5.57;;;2.70;;
14768;SDS011;7476;49.404;11.152;2023-03-30T15:06:39;6.57;;;2.83;;
14768;SDS011;7476;49.404;11.152;2023-03-30T15:09:08;4.40;;;2.50;;
14768;SDS011;7476;49.404;11.152;2023-03-30T15:11:40;3.97;;;2.60;;
14768;SDS011;7476;49.404;11.152;2023-03-30T15:14:11;3.90;;;2.60;;
14768;SDS011;7476;49.404;11.152;2023-03-30T15:16:42;5.57;;;2.53;;
14768;SDS011;7476;49.404;11.152;2023-03-30T15:19:15;5.03;;;2.67;;
14768;SDS011;7476;49.404;11.152;2023-03-30T15:21:52;4.77;;;2.53;;
14768;SDS011;7476;49.404;11.152;2023-03-30T15:24:22;4.33;;;2.70;;
14768;SDS011;7476;49.404;11.152;2023-03-30T15:26:52;7.03;;;2.93;;